sensor_id;sensor_type;location;lat;lon;timestamp;temperature;humidity
39277;DHT22;63149;48.086;-1.606;2023-03-01T06:02:28;-0.70;99.90
39277;DHT22;63149;48.086;-1.606;2023-03-01T06:04:55;-0.60;99.90
39277;DHT22;63149;48.086;-1.606;2023-03-01T06:07:22;-0.70;99.90
39277;DHT22;63149;48.086;-1.606;2023-03-01T06:09:49;-0.70;99.90
39277;DHT22;63149;48.086;-1.606;2023-03-01T06:12:16;-0.70;99.90
39277;DHT22;63149;48.086;-1.606;2023-03-01T06:14:45;-0.80;99.90
39277;DHT22;63149;48.086;-1.606;2023-03-01T06:17:12;-0.70;99.90
39277;DHT22;63149;48.086;-1.606;2023-03-01T06:19:41;-0.70;99.90
39277;DHT22;63149;48.086;-1.606;2023-03-01T06:22:08;-0.70;99.90
39277;DHT22;63149;48.086;-1.606;2023-03-01T06:24:35;-0.70;99.90
39277;DHT22;63149;48.086;-1.606;2023-03-01T06:27:01;-0.70;99.90
39277;DHT22;63149;48.086;-1.606;2023-03-01T06:29:28;-0.60;99.90
39277;DHT22;63149;48.086;-1.606;2023-03-01T06:31:55;-0.60;99.90
39277;DHT22;63149;48.086;-1.606;2023-03-01T06:34:22;-0.60;99.90
39277;DHT22;63149;48.086;-1.606;2023-03-01T06:36:51;-0.60;99.90
39277;DHT22;63149;48.086;-1.606;2023-03-01T06:39:18;-0.50;99.90
39277;DHT22;63149;48.086;-1.606;2023-03-01T06:41:45;-0.50;99.90
39277;DHT22;63149;48.086;-1.606;2023-03-01T06:44:11;-0.60;99.90
39277;DHT22;63149;48.086;-1.606;2023-03-01T06:46:39;-0.60;99.90
39277;DHT22;63149;48.086;-1.606;2023-03-01T06:49:06;-0.60;99.90
39277;DHT22;63149;48.086;-1.606;2023-03-01T06:51:35;-0.60;99.90
39277;DHT22;63149;48.086;-1.606;2023-03-01T06:54:05;-0.60;99.90
39277;DHT22;63149;48.086;-1.606;2023-03-01T06:56:32;-0.60;99.90
39277;DHT22;63149;48.086;-1.606;2023-03-01T06:58:59;-0.60;99.90
39277;DHT22;63149;48.086;-1.606;2023-03-01T07:01:26;-0.60;99.90
39277;DHT22;63149;48.086;-1.606;2023-03-01T07:03:53;-0.60;99.90
39277;DHT22;63149;48.086;-1.606;2023-03-01T07:06:20;-0.60;99.90
39277;DHT22;63149;48.086;-1.606;2023-03-01T07:08:48;-0.60;99.90
39277;DHT22;63149;48.086;-1.606;2023-03-01T07:11:16;-0.70;99.90
39277;DHT22;63149;48.086;-1.606;2023-03-01T07:13:43;-0.70;99.90
39277;DHT22;63149;48.086;-1.606;2023-03-01T07:16:10;-0.70;99.90
39277;DHT22;63149;48.086;-1.606;2023-03-01T07:18:37;-0.70;99.90
39277;DHT22;63149;48.086;-1.606;2023-03-01T07:21:05;-0.70;99.90
39277;DHT22;63149;48.086;-1.606;2023-03-01T07:23:32;-0.70;99.90
39277;DHT22;63149;48.086;-1.606;2023-03-01T07:25:59;-0.80;99.90
39277;DHT22;63149;48.086;-1.606;2023-03-01T07:28:28;-0.80;99.90
39277;DHT22;63149;48.086;-1.606;2023-03-01T07:31:00;-0.80;99.90
39277;DHT22;63149;48.086;-1.606;2023-03-01T07:33:28;-0.80;99.90
39277;DHT22;63149;48.086;-1.606;2023-03-01T07:35:58;-0.80;99.90
39277;DHT22;63149;48.086;-1.606;2023-03-01T07:38:26;-0.80;99.90
39277;DHT22;63149;48.086;-1.606;2023-03-01T07:40:53;-0.70;99.90
39277;DHT22;63149;48.086;-1.606;2023-03-01T07:43:20;-0.70;99.90
39277;DHT22;63149;48.086;-1.606;2023-03-01T07:45:48;-0.70;99.90
39277;DHT22;63149;48.086;-1.606;2023-03-01T07:48:15;-0.60;99.90
39277;DHT22;63149;48.086;-1.606;2023-03-01T07:50:42;-0.60;99.90
39277;DHT22;63149;48.086;-1.606;2023-03-01T07:53:09;-0.50;99.90
39277;DHT22;63149;48.086;-1.606;2023-03-01T07:55:36;-0.50;99.90
39277;DHT22;63149;48.086;-1.606;2023-03-01T07:58:03;-0.50;99.90
39277;DHT22;63149;48.086;-1.606;2023-03-01T08:00:30;-0.40;99.90
39277;DHT22;63149;48.086;-1.606;2023-03-01T08:03:00;-0.40;99.90
39277;DHT22;63149;48.086;-1.606;2023-03-01T08:05:27;-0.30;99.90
39277;DHT22;63149;48.086;-1.606;2023-03-01T08:07:54;-0.20;99.90
39277;DHT22;63149;48.086;-1.606;2023-03-01T08:10:21;-0.20;99.90
39277;DHT22;63149;48.086;-1.606;2023-03-01T08:12:51;-0.10;99.90
39277;DHT22;63149;48.086;-1.606;2023-03-01T08:15:18;0.00;99.90
39277;DHT22;63149;48.086;-1.606;2023-03-01T08:17:45;0.00;99.90
39277;DHT22;63149;48.086;-1.606;2023-03-01T08:20:13;0.10;99.90
39277;DHT22;63149;48.086;-1.606;2023-03-01T08:22:41;0.10;99.90
39277;DHT22;63149;48.086;-1.606;2023-03-01T08:25:08;0.20;99.90
39277;DHT22;63149;48.086;-1.606;2023-03-01T08:27:35;0.30;99.90
39277;DHT22;63149;48.086;-1.606;2023-03-01T08:30:02;0.40;99.90
39277;DHT22;63149;48.086;-1.606;2023-03-01T08:32:29;0.40;99.90
39277;DHT22;63149;48.086;-1.606;2023-03-01T08:34:56;0.50;99.90
39277;DHT22;63149;48.086;-1.606;2023-03-01T08:37:25;0.50;99.90
39277;DHT22;63149;48.086;-1.606;2023-03-01T08:39:53;0.60;99.90
39277;DHT22;63149;48.086;-1.606;2023-03-01T08:42:20;0.70;99.90
39277;DHT22;63149;48.086;-1.606;2023-03-01T08:44:47;0.70;99.90
39277;DHT22;63149;48.086;-1.606;2023-03-01T08:47:14;0.70;99.90
39277;DHT22;63149;48.086;-1.606;2023-03-01T08:49:41;0.80;99.90
39277;DHT22;63149;48.086;-1.606;2023-03-01T08:52:08;0.90;99.90
39277;DHT22;63149;48.086;-1.606;2023-03-01T08:54:36;1.00;99.90
39277;DHT22;63149;48.086;-1.606;2023-03-01T08:57:03;1.10;99.90
39277;DHT22;63149;48.086;-1.606;2023-03-01T08:59:30;1.10;99.90
39277;DHT22;63149;48.086;-1.606;2023-03-01T09:02:02;1.30;99.90
39277;DHT22;63149;48.086;-1.606;2023-03-01T09:04:29;1.40;99.90
39277;DHT22;63149;48.086;-1.606;2023-03-01T09:06:56;1.50;99.90
39277;DHT22;63149;48.086;-1.606;2023-03-01T09:09:23;1.60;99.90
39277;DHT22;63149;48.086;-1.606;2023-03-01T09:11:51;1.80;99.90
39277;DHT22;63149;48.086;-1.606;2023-03-01T09:14:18;2.00;99.90
39277;DHT22;63149;48.086;-1.606;2023-03-01T09:16:45;2.10;99.90
39277;DHT22;63149;48.086;-1.606;2023-03-01T09:19:13;2.30;99.90
39277;DHT22;63149;48.086;-1.606;2023-03-01T09:21:40;2.40;99.90
39277;DHT22;63149;48.086;-1.606;2023-03-01T09:24:19;2.70;99.90
39277;DHT22;63149;48.086;-1.606;2023-03-01T09:26:47;3.00;99.90
39277;DHT22;63149;48.086;-1.606;2023-03-01T09:29:16;3.10;99.90
39277;DHT22;63149;48.086;-1.606;2023-03-01T09:31:43;3.60;99.90
39277;DHT22;63149;48.086;-1.606;2023-03-01T09:34:10;3.90;99.90
39277;DHT22;63149;48.086;-1.606;2023-03-01T09:36:37;4.00;99.90
39277;DHT22;63149;48.086;-1.606;2023-03-01T09:39:04;4.70;99.90
39277;DHT22;63149;48.086;-1.606;2023-03-01T09:41:44;4.90;99.90
39277;DHT22;63149;48.086;-1.606;2023-03-01T09:46:59;6.20;99.90
39277;DHT22;63149;48.086;-1.606;2023-03-01T09:49:28;6.60;99.90
39277;DHT22;63149;48.086;-1.606;2023-03-01T09:52:01;7.00;99.90
39277;DHT22;63149;48.086;-1.606;2023-03-01T09:54:30;7.20;99.90
39277;DHT22;63149;48.086;-1.606;2023-03-01T09:57:06;7.60;99.90
39277;DHT22;63149;48.086;-1.606;2023-03-01T09:59:51;7.60;99.90
39277;DHT22;63149;48.086;-1.606;2023-03-01T10:02:29;7.40;99.90
39277;DHT22;63149;48.086;-1.606;2023-03-01T10:05:05;7.60;99.90
39277;DHT22;63149;48.086;-1.606;2023-03-01T10:07:44;7.50;99.90
39277;DHT22;63149;48.086;-1.606;2023-03-01T10:10:26;8.20;99.90
39277;DHT22;63149;48.086;-1.606;2023-03-01T10:12:56;7.90;99.90
39277;DHT22;63149;48.086;-1.606;2023-03-01T10:15:30;8.60;99.90
39277;DHT22;63149;48.086;-1.606;2023-03-01T10:18:04;7.90;99.90
39277;DHT22;63149;48.086;-1.606;2023-03-01T10:20:42;8.10;99.90
39277;DHT22;63149;48.086;-1.606;2023-03-01T10:23:10;8.40;99.90
39277;DHT22;63149;48.086;-1.606;2023-03-01T10:25:47;8.40;99.90
39277;DHT22;63149;48.086;-1.606;2023-03-01T10:28:20;7.60;99.90
39277;DHT22;63149;48.086;-1.606;2023-03-01T10:30:51;7.50;99.90
39277;DHT22;63149;48.086;-1.606;2023-03-01T10:33:23;8.20;99.90
39277;DHT22;63149;48.086;-1.606;2023-03-01T10:35:51;7.90;99.90
39277;DHT22;63149;48.086;-1.606;2023-03-01T10:38:19;8.70;99.90
39277;DHT22;63149;48.086;-1.606;2023-03-01T10:40:53;9.60;99.90
39277;DHT22;63149;48.086;-1.606;2023-03-01T10:43:21;8.20;99.90
39277;DHT22;63149;48.086;-1.606;2023-03-01T10:45:48;9.20;99.90
39277;DHT22;63149;48.086;-1.606;2023-03-01T10:48:16;10.00;99.90
39277;DHT22;63149;48.086;-1.606;2023-03-01T10:50:47;10.40;99.90
39277;DHT22;63149;48.086;-1.606;2023-03-01T10:53:33;9.50;99.90
39277;DHT22;63149;48.086;-1.606;2023-03-01T10:56:03;9.50;99.90
39277;DHT22;63149;48.086;-1.606;2023-03-01T10:58:31;9.80;99.90
39277;DHT22;63149;48.086;-1.606;2023-03-01T11:00:59;9.00;99.90
39277;DHT22;63149;48.086;-1.606;2023-03-01T11:03:28;10.00;99.90
39277;DHT22;63149;48.086;-1.606;2023-03-01T11:06:04;11.30;99.90
39277;DHT22;63149;48.086;-1.606;2023-03-01T11:08:39;12.50;99.90
39277;DHT22;63149;48.086;-1.606;2023-03-01T11:11:23;12.90;99.90
39277;DHT22;63149;48.086;-1.606;2023-03-01T11:13:55;10.80;99.90
39277;DHT22;63149;48.086;-1.606;2023-03-01T11:16:36;10.20;99.90
39277;DHT22;63149;48.086;-1.606;2023-03-01T11:19:20;10.10;99.90
39277;DHT22;63149;48.086;-1.606;2023-03-01T11:21:56;11.00;99.90
39277;DHT22;63149;48.086;-1.606;2023-03-01T11:24:29;10.50;99.90
39277;DHT22;63149;48.086;-1.606;2023-03-01T11:27:00;8.80;99.90
39277;DHT22;63149;48.086;-1.606;2023-03-01T11:29:34;9.00;99.90
39277;DHT22;63149;48.086;-1.606;2023-03-01T11:32:07;10.80;99.90
39277;DHT22;63149;48.086;-1.606;2023-03-01T11:34:40;10.60;99.90
39277;DHT22;63149;48.086;-1.606;2023-03-01T11:37:21;9.30;99.90
39277;DHT22;63149;48.086;-1.606;2023-03-01T11:39:54;8.90;99.90
39277;DHT22;63149;48.086;-1.606;2023-03-01T11:42:37;8.50;99.90
39277;DHT22;63149;48.086;-1.606;2023-03-01T11:45:10;10.10;99.90
39277;DHT22;63149;48.086;-1.606;2023-03-01T11:47:43;11.40;99.90
39277;DHT22;63149;48.086;-1.606;2023-03-01T11:50:20;11.10;99.90
39277;DHT22;63149;48.086;-1.606;2023-03-01T11:53:01;11.20;99.90
39277;DHT22;63149;48.086;-1.606;2023-03-01T11:55:43;10.30;99.90
39277;DHT22;63149;48.086;-1.606;2023-03-01T11:58:30;9.70;99.90
39277;DHT22;63149;48.086;-1.606;2023-03-01T12:01:08;10.70;99.90
39277;DHT22;63149;48.086;-1.606;2023-03-01T12:04:02;10.90;99.90
39277;DHT22;63149;48.086;-1.606;2023-03-01T12:06:50;11.30;99.90
39277;DHT22;63149;48.086;-1.606;2023-03-01T12:09:38;12.60;99.90
39277;DHT22;63149;48.086;-1.606;2023-03-01T12:12:26;11.50;99.90
39277;DHT22;63149;48.086;-1.606;2023-03-01T12:20:56;12.20;99.90
39277;DHT22;63149;48.086;-1.606;2023-03-01T12:26:31;12.10;99.90
39277;DHT22;63149;48.086;-1.606;2023-03-01T12:29:18;10.60;99.90
39277;DHT22;63149;48.086;-1.606;2023-03-01T12:34:58;11.80;99.90
39277;DHT22;63149;48.086;-1.606;2023-03-01T12:37:39;13.00;99.90
39277;DHT22;63149;48.086;-1.606;2023-03-01T12:43:17;13.70;99.90
39277;DHT22;63149;48.086;-1.606;2023-03-01T12:45:54;13.80;99.90
39277;DHT22;63149;48.086;-1.606;2023-03-01T12:48:36;14.30;99.90
39277;DHT22;63149;48.086;-1.606;2023-03-01T12:51:07;13.40;99.90
39277;DHT22;63149;48.086;-1.606;2023-03-01T12:53:38;13.30;99.90
39277;DHT22;63149;48.086;-1.606;2023-03-01T12:56:08;12.00;99.90
39277;DHT22;63149;48.086;-1.606;2023-03-01T12:58:41;11.50;99.90
39277;DHT22;63149;48.086;-1.606;2023-03-01T13:01:22;10.90;99.90
39277;DHT22;63149;48.086;-1.606;2023-03-01T13:06:50;11.20;99.90
39277;DHT22;63149;48.086;-1.606;2023-03-01T13:09:25;10.20;99.90
39277;DHT22;63149;48.086;-1.606;2023-03-01T13:11:56;10.20;99.90
39277;DHT22;63149;48.086;-1.606;2023-03-01T13:14:44;10.00;99.90
39277;DHT22;63149;48.086;-1.606;2023-03-01T13:17:29;10.00;99.90
39277;DHT22;63149;48.086;-1.606;2023-03-01T13:19:57;9.20;99.90
39277;DHT22;63149;48.086;-1.606;2023-03-01T13:22:26;9.10;99.90
39277;DHT22;63149;48.086;-1.606;2023-03-01T13:25:02;9.30;99.90
39277;DHT22;63149;48.086;-1.606;2023-03-01T13:27:29;9.50;99.90
39277;DHT22;63149;48.086;-1.606;2023-03-01T13:30:00;10.00;99.90
39277;DHT22;63149;48.086;-1.606;2023-03-01T13:32:32;10.50;99.90
39277;DHT22;63149;48.086;-1.606;2023-03-01T13:35:06;10.70;99.90
39277;DHT22;63149;48.086;-1.606;2023-03-01T13:37:51;10.30;99.90
39277;DHT22;63149;48.086;-1.606;2023-03-01T13:40:58;9.40;99.90
39277;DHT22;63149;48.086;-1.606;2023-03-01T13:43:31;8.80;99.90
39277;DHT22;63149;48.086;-1.606;2023-03-01T13:46:00;8.40;99.90
39277;DHT22;63149;48.086;-1.606;2023-03-01T13:48:29;8.30;99.90
39277;DHT22;63149;48.086;-1.606;2023-03-01T13:50:59;7.90;99.90
39277;DHT22;63149;48.086;-1.606;2023-03-01T13:53:30;8.00;99.90
39277;DHT22;63149;48.086;-1.606;2023-03-01T13:56:01;8.00;99.90
39277;DHT22;63149;48.086;-1.606;2023-03-01T13:58:30;8.10;99.90
39277;DHT22;63149;48.086;-1.606;2023-03-01T14:01:01;7.60;99.90
39277;DHT22;63149;48.086;-1.606;2023-03-01T14:03:30;7.50;99.90
39277;DHT22;63149;48.086;-1.606;2023-03-01T14:06:00;7.50;99.90
39277;DHT22;63149;48.086;-1.606;2023-03-01T14:08:28;7.70;99.90
39277;DHT22;63149;48.086;-1.606;2023-03-01T14:14:09;7.40;99.90
39277;DHT22;63149;48.086;-1.606;2023-03-01T14:16:49;7.30;99.90
39277;DHT22;63149;48.086;-1.606;2023-03-01T14:19:21;7.60;99.90
39277;DHT22;63149;48.086;-1.606;2023-03-01T14:21:59;7.60;99.90
39277;DHT22;63149;48.086;-1.606;2023-03-01T14:24:28;7.70;99.90
39277;DHT22;63149;48.086;-1.606;2023-03-01T14:26:55;7.70;99.90
39277;DHT22;63149;48.086;-1.606;2023-03-01T14:29:27;7.60;99.90
39277;DHT22;63149;48.086;-1.606;2023-03-01T14:32:08;7.60;99.90
39277;DHT22;63149;48.086;-1.606;2023-03-01T14:34:35;7.50;99.90
39277;DHT22;63149;48.086;-1.606;2023-03-01T14:37:10;7.40;99.90
39277;DHT22;63149;48.086;-1.606;2023-03-01T14:39:37;7.50;99.90
39277;DHT22;63149;48.086;-1.606;2023-03-01T14:42:04;7.50;99.90
39277;DHT22;63149;48.086;-1.606;2023-03-01T14:44:32;7.70;99.90
39277;DHT22;63149;48.086;-1.606;2023-03-01T14:47:04;7.50;99.90
39277;DHT22;63149;48.086;-1.606;2023-03-01T14:49:32;7.40;99.90
39277;DHT22;63149;48.086;-1.606;2023-03-01T14:52:04;7.30;99.90
39277;DHT22;63149;48.086;-1.606;2023-03-01T14:54:37;7.20;99.90
39277;DHT22;63149;48.086;-1.606;2023-03-01T14:57:15;7.20;99.90
39277;DHT22;63149;48.086;-1.606;2023-03-01T14:59:43;7.20;99.90
39277;DHT22;63149;48.086;-1.606;2023-03-01T15:02:14;7.40;99.90
39277;DHT22;63149;48.086;-1.606;2023-03-01T15:04:43;7.50;99.90
39277;DHT22;63149;48.086;-1.606;2023-03-01T15:07:13;7.60;99.90
39277;DHT22;63149;48.086;-1.606;2023-03-01T15:09:41;7.70;99.90
39277;DHT22;63149;48.086;-1.606;2023-03-01T15:12:39;7.90;99.90
39277;DHT22;63149;48.086;-1.606;2023-03-01T15:15:32;7.90;99.90
39277;DHT22;63149;48.086;-1.606;2023-03-01T15:18:02;7.80;99.90
39277;DHT22;63149;48.086;-1.606;2023-03-01T15:20:31;7.70;99.90
39277;DHT22;63149;48.086;-1.606;2023-03-01T15:23:01;7.70;99.90
39277;DHT22;63149;48.086;-1.606;2023-03-01T15:25:29;7.70;99.90
39277;DHT22;63149;48.086;-1.606;2023-03-01T15:27:58;7.70;99.90
39277;DHT22;63149;48.086;-1.606;2023-03-01T15:30:27;7.80;99.90
39277;DHT22;63149;48.086;-1.606;2023-03-01T15:33:37;7.70;99.90
39277;DHT22;63149;48.086;-1.606;2023-03-01T15:36:36;7.80;99.90
39277;DHT22;63149;48.086;-1.606;2023-03-01T15:39:04;7.70;99.90
39277;DHT22;63149;48.086;-1.606;2023-03-01T15:41:38;7.70;99.90
39277;DHT22;63149;48.086;-1.606;2023-03-01T15:44:16;7.60;99.90
39277;DHT22;63149;48.086;-1.606;2023-03-01T15:46:45;7.40;99.90
39277;DHT22;63149;48.086;-1.606;2023-03-01T15:49:27;7.30;99.90
39277;DHT22;63149;48.086;-1.606;2023-03-01T15:51:57;7.40;99.90
39277;DHT22;63149;48.086;-1.606;2023-03-01T15:54:26;7.40;99.90
39277;DHT22;63149;48.086;-1.606;2023-03-01T15:56:54;7.50;99.90
39277;DHT22;63149;48.086;-1.606;2023-03-01T15:59:21;7.40;99.90
39277;DHT22;63149;48.086;-1.606;2023-03-01T16:01:48;7.40;99.90
39277;DHT22;63149;48.086;-1.606;2023-03-01T16:04:17;7.30;99.90
39277;DHT22;63149;48.086;-1.606;2023-03-01T16:06:52;7.30;99.90
39277;DHT22;63149;48.086;-1.606;2023-03-01T16:09:21;7.40;99.90
39277;DHT22;63149;48.086;-1.606;2023-03-01T16:11:49;7.30;99.90
39277;DHT22;63149;48.086;-1.606;2023-03-01T16:14:16;7.20;99.90
39277;DHT22;63149;48.086;-1.606;2023-03-01T16:16:43;7.20;99.90
39277;DHT22;63149;48.086;-1.606;2023-03-01T16:19:10;7.20;99.90
39277;DHT22;63149;48.086;-1.606;2023-03-01T16:21:38;7.30;99.90
39277;DHT22;63149;48.086;-1.606;2023-03-01T16:24:07;7.20;99.90
39277;DHT22;63149;48.086;-1.606;2023-03-01T16:26:35;7.10;99.90
39277;DHT22;63149;48.086;-1.606;2023-03-01T16:29:02;7.00;99.90
39277;DHT22;63149;48.086;-1.606;2023-03-01T16:31:29;7.00;99.90
39277;DHT22;63149;48.086;-1.606;2023-03-01T16:33:58;7.00;99.90
39277;DHT22;63149;48.086;-1.606;2023-03-01T16:36:26;6.90;99.90
39277;DHT22;63149;48.086;-1.606;2023-03-01T16:38:54;7.00;99.90
39277;DHT22;63149;48.086;-1.606;2023-03-01T16:41:23;7.00;99.90
39277;DHT22;63149;48.086;-1.606;2023-03-01T16:43:51;6.90;99.90
39277;DHT22;63149;48.086;-1.606;2023-03-01T16:46:20;6.90;99.90
39277;DHT22;63149;48.086;-1.606;2023-03-01T16:48:48;6.90;99.90
39277;DHT22;63149;48.086;-1.606;2023-03-01T16:51:15;6.80;99.90
39277;DHT22;63149;48.086;-1.606;2023-03-01T16:53:42;6.80;99.90
39277;DHT22;63149;48.086;-1.606;2023-03-01T16:56:11;6.70;99.90
39277;DHT22;63149;48.086;-1.606;2023-03-01T16:58:41;6.70;99.90
39277;DHT22;63149;48.086;-1.606;2023-03-01T17:01:10;6.70;99.90
39277;DHT22;63149;48.086;-1.606;2023-03-01T17:03:38;6.70;99.90
39277;DHT22;63149;48.086;-1.606;2023-03-01T17:06:07;6.60;99.90
39277;DHT22;63149;48.086;-1.606;2023-03-01T17:08:34;6.60;99.90
39277;DHT22;63149;48.086;-1.606;2023-03-01T17:11:03;6.60;99.90
39277;DHT22;63149;48.086;-1.606;2023-03-01T17:13:30;6.50;99.90
39277;DHT22;63149;48.086;-1.606;2023-03-01T17:15:59;6.40;99.90
39277;DHT22;63149;48.086;-1.606;2023-03-01T17:18:26;6.40;99.90
39277;DHT22;63149;48.086;-1.606;2023-03-01T17:20:53;6.30;99.90
39277;DHT22;63149;48.086;-1.606;2023-03-01T17:23:20;6.30;99.90
39277;DHT22;63149;48.086;-1.606;2023-03-01T17:25:47;6.20;99.90
39277;DHT22;63149;48.086;-1.606;2023-03-01T17:28:14;6.20;99.90
39277;DHT22;63149;48.086;-1.606;2023-03-01T17:30:42;6.20;99.90
39277;DHT22;63149;48.086;-1.606;2023-03-01T17:33:11;6.10;99.90
39277;DHT22;63149;48.086;-1.606;2023-03-01T17:35:38;6.00;99.90
39277;DHT22;63149;48.086;-1.606;2023-03-01T17:38:06;6.00;99.90
39277;DHT22;63149;48.086;-1.606;2023-03-01T17:40:33;5.90;99.90
39277;DHT22;63149;48.086;-1.606;2023-03-01T17:43:01;5.90;99.90
39277;DHT22;63149;48.086;-1.606;2023-03-01T17:45:28;5.80;99.90
39277;DHT22;63149;48.086;-1.606;2023-03-01T17:47:55;5.80;99.90
39277;DHT22;63149;48.086;-1.606;2023-03-01T17:50:23;5.80;99.90
39277;DHT22;63149;48.086;-1.606;2023-03-01T17:52:50;5.70;99.90
39277;DHT22;63149;48.086;-1.606;2023-03-01T17:55:17;5.70;99.90
39277;DHT22;63149;48.086;-1.606;2023-03-01T17:57:44;5.60;99.90
39277;DHT22;63149;48.086;-1.606;2023-03-01T18:00:13;5.60;99.90
39277;DHT22;63149;48.086;-1.606;2023-03-01T18:02:41;5.50;99.90
39277;DHT22;63149;48.086;-1.606;2023-03-01T18:05:09;5.50;99.90
39277;DHT22;63149;48.086;-1.606;2023-03-01T18:07:37;5.40;99.90
39277;DHT22;63149;48.086;-1.606;2023-03-01T18:10:05;5.40;99.90
39277;DHT22;63149;48.086;-1.606;2023-03-01T18:12:32;5.30;99.90
39277;DHT22;63149;48.086;-1.606;2023-03-01T18:14:59;5.30;99.90
39277;DHT22;63149;48.086;-1.606;2023-03-01T18:17:26;5.20;99.90
39277;DHT22;63149;48.086;-1.606;2023-03-01T18:19:53;5.20;99.90
39277;DHT22;63149;48.086;-1.606;2023-03-01T18:22:21;5.20;99.90
39277;DHT22;63149;48.086;-1.606;2023-03-01T18:24:49;5.10;99.90
39277;DHT22;63149;48.086;-1.606;2023-03-01T18:27:17;5.20;99.90
39277;DHT22;63149;48.086;-1.606;2023-03-01T18:29:44;5.10;99.90
39277;DHT22;63149;48.086;-1.606;2023-03-01T18:32:11;5.10;99.90
39277;DHT22;63149;48.086;-1.606;2023-03-01T18:34:37;5.10;99.90
39277;DHT22;63149;48.086;-1.606;2023-03-01T18:37:05;5.00;99.90
39277;DHT22;63149;48.086;-1.606;2023-03-01T18:39:32;5.00;99.90
39277;DHT22;63149;48.086;-1.606;2023-03-01T18:42:00;4.90;99.90
39277;DHT22;63149;48.086;-1.606;2023-03-01T18:44:28;4.90;99.90
39277;DHT22;63149;48.086;-1.606;2023-03-01T18:46:55;4.90;99.90
39277;DHT22;63149;48.086;-1.606;2023-03-01T18:49:23;4.80;99.90
39277;DHT22;63149;48.086;-1.606;2023-03-01T18:51:51;4.80;99.90
39277;DHT22;63149;48.086;-1.606;2023-03-01T18:54:18;4.80;99.90
39277;DHT22;63149;48.086;-1.606;2023-03-01T18:56:45;4.80;99.90
39277;DHT22;63149;48.086;-1.606;2023-03-01T18:59:13;4.80;99.90
39277;DHT22;63149;48.086;-1.606;2023-03-01T19:01:40;4.70;99.90
39277;DHT22;63149;48.086;-1.606;2023-03-01T19:04:07;4.70;99.90
39277;DHT22;63149;48.086;-1.606;2023-03-01T19:06:36;4.70;99.90
39277;DHT22;63149;48.086;-1.606;2023-03-01T19:09:03;4.60;99.90
39277;DHT22;63149;48.086;-1.606;2023-03-01T19:11:30;4.60;99.90
39277;DHT22;63149;48.086;-1.606;2023-03-01T19:13:58;4.60;99.90
39277;DHT22;63149;48.086;-1.606;2023-03-01T19:16:28;4.60;99.90
39277;DHT22;63149;48.086;-1.606;2023-03-01T19:18:57;4.60;99.90
39277;DHT22;63149;48.086;-1.606;2023-03-01T19:21:27;4.50;99.90
39277;DHT22;63149;48.086;-1.606;2023-03-01T19:23:55;4.50;99.90
39277;DHT22;63149;48.086;-1.606;2023-03-01T19:26:23;4.50;99.90
39277;DHT22;63149;48.086;-1.606;2023-03-01T19:28:51;4.50;99.90
39277;DHT22;63149;48.086;-1.606;2023-03-01T19:31:20;4.50;99.90
39277;DHT22;63149;48.086;-1.606;2023-03-01T19:33:49;4.40;99.90
39277;DHT22;63149;48.086;-1.606;2023-03-01T19:36:17;4.40;99.90
39277;DHT22;63149;48.086;-1.606;2023-03-01T19:38:46;4.40;99.90
39277;DHT22;63149;48.086;-1.606;2023-03-01T19:41:15;4.30;99.90
39277;DHT22;63149;48.086;-1.606;2023-03-01T19:43:44;4.30;99.90
39277;DHT22;63149;48.086;-1.606;2023-03-01T19:46:12;4.30;99.90
39277;DHT22;63149;48.086;-1.606;2023-03-01T19:48:39;4.30;99.90
39277;DHT22;63149;48.086;-1.606;2023-03-01T19:51:08;4.20;99.90
39277;DHT22;63149;48.086;-1.606;2023-03-01T19:53:36;4.20;99.90
39277;DHT22;63149;48.086;-1.606;2023-03-01T19:56:04;4.20;99.90
39277;DHT22;63149;48.086;-1.606;2023-03-01T19:58:32;4.30;99.90
39277;DHT22;63149;48.086;-1.606;2023-03-01T20:00:59;4.30;99.90
39277;DHT22;63149;48.086;-1.606;2023-03-01T20:03:27;4.30;99.90
39277;DHT22;63149;48.086;-1.606;2023-03-01T20:05:54;4.20;99.90
39277;DHT22;63149;48.086;-1.606;2023-03-01T20:08:24;4.20;99.90
39277;DHT22;63149;48.086;-1.606;2023-03-01T20:10:51;4.20;99.90
39277;DHT22;63149;48.086;-1.606;2023-03-01T20:13:18;4.20;99.90
39277;DHT22;63149;48.086;-1.606;2023-03-01T20:15:46;4.20;99.90
39277;DHT22;63149;48.086;-1.606;2023-03-01T20:18:13;4.20;99.90
39277;DHT22;63149;48.086;-1.606;2023-03-01T20:20:40;4.20;99.90
39277;DHT22;63149;48.086;-1.606;2023-03-01T20:23:07;4.10;99.90
39277;DHT22;63149;48.086;-1.606;2023-03-01T20:25:35;4.10;99.90
39277;DHT22;63149;48.086;-1.606;2023-03-01T20:28:02;4.10;99.90
39277;DHT22;63149;48.086;-1.606;2023-03-01T20:30:29;4.10;99.90
39277;DHT22;63149;48.086;-1.606;2023-03-01T20:32:56;4.00;99.90
39277;DHT22;63149;48.086;-1.606;2023-03-01T20:35:23;4.00;99.90
39277;DHT22;63149;48.086;-1.606;2023-03-01T20:37:50;4.00;99.90
39277;DHT22;63149;48.086;-1.606;2023-03-01T20:40:18;4.00;99.90
39277;DHT22;63149;48.086;-1.606;2023-03-01T20:42:53;3.90;99.90
39277;DHT22;63149;48.086;-1.606;2023-03-01T20:45:20;3.80;99.90
39277;DHT22;63149;48.086;-1.606;2023-03-01T20:47:47;3.80;99.90
39277;DHT22;63149;48.086;-1.606;2023-03-01T20:50:15;3.70;99.90
39277;DHT22;63149;48.086;-1.606;2023-03-01T20:52:42;3.60;99.90
39277;DHT22;63149;48.086;-1.606;2023-03-01T20:55:10;3.60;99.90
39277;DHT22;63149;48.086;-1.606;2023-03-01T20:57:37;3.50;99.90
39277;DHT22;63149;48.086;-1.606;2023-03-01T21:00:07;3.50;99.90
39277;DHT22;63149;48.086;-1.606;2023-03-01T21:02:34;3.50;99.90
39277;DHT22;63149;48.086;-1.606;2023-03-01T21:05:03;3.30;99.90
39277;DHT22;63149;48.086;-1.606;2023-03-01T21:07:30;3.30;99.90
39277;DHT22;63149;48.086;-1.606;2023-03-01T21:09:57;3.20;99.90
39277;DHT22;63149;48.086;-1.606;2023-03-01T21:12:24;3.20;99.90
39277;DHT22;63149;48.086;-1.606;2023-03-01T21:14:51;3.10;99.90
39277;DHT22;63149;48.086;-1.606;2023-03-01T21:17:19;3.10;99.90
39277;DHT22;63149;48.086;-1.606;2023-03-01T21:19:46;3.10;99.90
39277;DHT22;63149;48.086;-1.606;2023-03-01T21:22:15;3.10;99.90
39277;DHT22;63149;48.086;-1.606;2023-03-01T21:24:42;3.00;99.90
39277;DHT22;63149;48.086;-1.606;2023-03-01T21:27:10;3.00;99.90
39277;DHT22;63149;48.086;-1.606;2023-03-01T21:29:38;3.00;99.90
39277;DHT22;63149;48.086;-1.606;2023-03-01T21:32:05;3.00;99.90
39277;DHT22;63149;48.086;-1.606;2023-03-01T21:34:35;3.00;99.90
39277;DHT22;63149;48.086;-1.606;2023-03-01T21:37:02;2.90;99.90
39277;DHT22;63149;48.086;-1.606;2023-03-01T21:39:30;2.90;99.90
39277;DHT22;63149;48.086;-1.606;2023-03-01T21:41:58;2.90;99.90
39277;DHT22;63149;48.086;-1.606;2023-03-01T21:44:27;3.00;99.90
39277;DHT22;63149;48.086;-1.606;2023-03-01T21:46:54;2.90;99.90
39277;DHT22;63149;48.086;-1.606;2023-03-01T21:49:22;2.90;99.90
39277;DHT22;63149;48.086;-1.606;2023-03-01T21:51:51;2.80;99.90
39277;DHT22;63149;48.086;-1.606;2023-03-01T21:54:18;2.80;99.90
39277;DHT22;63149;48.086;-1.606;2023-03-01T21:56:46;2.70;99.90
39277;DHT22;63149;48.086;-1.606;2023-03-01T21:59:16;2.70;99.90
39277;DHT22;63149;48.086;-1.606;2023-03-01T22:01:44;2.60;99.90
39277;DHT22;63149;48.086;-1.606;2023-03-01T22:04:11;2.50;99.90
39277;DHT22;63149;48.086;-1.606;2023-03-01T22:06:40;2.50;99.90
39277;DHT22;63149;48.086;-1.606;2023-03-01T22:09:11;2.40;99.90
39277;DHT22;63149;48.086;-1.606;2023-03-01T22:11:41;2.30;99.90